Observations

BIA Manual Entry


Date Temp Humidity Rainfall Dew Point Wind Direction Wind Speed Wind Pressure Condition Visibility
2025-05-05 21:00:42 29 78 0.00 25 220 5.7 1009 Cloudy 10 KM
2025-05-05 20:02:19 30 75 0.00 25 300 3.8 1008 Cloudy 10 KM
2025-05-05 19:01:39 30 77 0.00 25 300 7.6 1007 Cloudy 10 KM
2025-05-05 18:01:47 31 71 0.00 25 320 11.4 1007 Cloudy 20 KM
2025-05-05 17:00:02 31 69 25 290 13.3 1006 Partly Cloudy (Day) 20 KM
2025-05-05 16:00:24 32 68 25 280 17.1 1007 Partly Cloudy (Day) 20 KM
2025-05-05 15:03:47 33 69 25 280 15.2 1007 Partly Cloudy (Day) 15 KM
2025-05-05 14:00:21 29 72 24 230 17.1 1008 Showers 10 KM
2025-05-05 13:01:54 32 65 0.00 24 290 11.4 1009 Partly Cloudy (Day) 15 km
2025-05-05 12:01:42 32 66 0.00 25 280 7.6 1010 Partly Cloudy (Day) 20 km
2025-05-05 10:59:12 32 62 0.00 24 230 5.7 1010 Partly Cloudy (Day) 20 km
2025-05-05 10:01:37 29 77 0.00 25 160 5.7 1010 Partly Cloudy (Day) 10 km
2025-05-05 09:03:04 29 79 0.00 25 200 5.7 1010 Partly Cloudy (Day) 10 km
2025-05-05 07:58:22 27 84 25 190 5.7 1010 Partly Cloudy (Day) 20 KM
2025-05-05 07:00:30 27 89 25 190 3.8 1010 Partly Cloudy (Day) 10 KM
2025-05-05 06:01:33 26 92 25 190 3.8 1009 Partly Cloudy (Day) 10 KM
2025-05-05 04:58:43 26 91 25 210 5.7 1009 Night Thunderstorm 10 KM
2025-05-05 03:58:31 26 89 25 330 1.9 1009 Night Thunderstorm 10 KM
2025-05-05 02:59:26 26 91 25 220 5.7 1009 Partly Cloudy (Night) 10 KM
2025-05-05 01:59:15 27 90 0.00 25 190 7.6 1009 Partly Cloudy (Night) 10KM
2025-05-05 00:59:18 27 90 0.00 25 180 5.7 1009 Partly Cloudy (Night) 10KM
2025-05-04 23:59:18 27 88 0.00 25 170 5.7 1009 Partly Cloudy (Night) 10KM
2025-05-04 23:00:12 28 87 0.00 25 170 5.7 1010 Partly Cloudy (Night) 10KM
2025-05-04 21:58:53 28 86 0.00 25 110 5.7 1010 Partly Cloudy (Night) 10KM
2025-05-04 20:59:24 29 82 0.00 25 030 3.8 1009 Partly Cloudy (Night) 10 km